Adams Center, New York
Current Conditions -  °F | °C
As of 12:05 PM on Sunday 23 Nov 2014 (Local Time) from KART Reporting Station
Overcast Overcast  
Wind Chill: 52°   Ceiling: 3000
Heat Index: 52°   Visibility: 10mi
Dew Point: 40°   Wind: 7mph
Humidity: 63%   Direction: 210°SSW
Pressure: 30.02"   Gusts: NA
Location:  43.86°N, 76°W
Report Text: KART 231705Z AUTO 21006KT 10SM OVC030 11/04 A3002 RMK AO2 T01110044
Loading
Personal Weather Stations






























Interactive Weather Map New forecast layout! Learn more

10-Day Weather Forecast

Advertisements
Track Severe Weather on mobile